Terminal Aerodrome Forecast
Issued by NWS

Home | Current Version | Previous Version | Text Only | Print | Product List | Glossary On
Versions: 1 2 3 4 5 6 7 8 9 10 11 12 13 14 15 16 17 18 19
000
FTUS43 KPAH 210520
TAFOWB
TAF
KOWB 210520Z 2106/2206 12004KT P6SM BKN250
     FM211900 18006KT 5SM -RA BR OVC050
     FM220000 15003KT 6SM BR BKN010=

USA.gov is the U.S. government's official web portal to all federal, state and local government web resources and services.